createdAt,value
2022-08-20T00:01:19.663Z,21.62
2022-08-20T00:03:50.261Z,21.99
2022-08-20T00:06:25.044Z,21.97
2022-08-20T00:08:53.094Z,21.96
2022-08-20T00:11:26.409Z,21.94
2022-08-20T00:13:59.774Z,21.92
2022-08-20T00:16:32.855Z,21.89
2022-08-20T00:19:01.739Z,21.77
2022-08-20T00:21:31.495Z,21.84
2022-08-20T00:24:00.172Z,21.82
2022-08-20T00:26:28.016Z,21.80
2022-08-20T00:28:56.019Z,21.78
2022-08-20T00:31:25.464Z,21.76
2022-08-20T00:33:54.159Z,21.74
2022-08-20T00:36:32.549Z,21.68
2022-08-20T00:39:02.715Z,21.64
2022-08-20T00:41:31.103Z,20.60
2022-08-20T00:44:09.349Z,21.56
2022-08-20T00:46:38.460Z,21.46
2022-08-20T00:49:08.850Z,21.47
2022-08-20T00:51:40.836Z,21.44
2022-08-20T00:54:14.960Z,21.15
2022-08-20T00:56:45.831Z,21.43
2022-08-20T00:59:19.400Z,21.42
2022-08-20T01:01:56.323Z,20.44
2022-08-20T01:04:26.438Z,21.40
2022-08-20T01:06:54.371Z,21.39
2022-08-20T01:09:33.361Z,20.94
2022-08-20T01:12:13.607Z,21.36
2022-08-20T01:14:46.416Z,21.36
2022-08-20T01:17:18.085Z,21.35
2022-08-20T01:19:49.977Z,20.94
2022-08-20T01:22:42.365Z,21.34
2022-08-20T01:25:21.041Z,21.35
2022-08-20T01:27:56.019Z,21.34
2022-08-20T01:30:27.181Z,21.33
2022-08-20T01:32:55.175Z,21.12
2022-08-20T01:35:24.241Z,21.26
2022-08-20T01:37:52.250Z,21.21
2022-08-20T01:40:32.094Z,21.16
2022-08-20T01:43:01.294Z,20.67
2022-08-20T01:45:30.618Z,20.92
2022-08-20T01:47:58.903Z,21.08
2022-08-20T01:50:30.875Z,20.41
2022-08-20T01:53:04.902Z,20.85
2022-08-20T01:55:32.914Z,20.68
2022-08-20T01:58:03.678Z,20.17
2022-08-20T02:00:32.467Z,20.98
2022-08-20T02:03:00.348Z,20.96
2022-08-20T02:05:30.706Z,20.26
2022-08-20T02:07:58.980Z,20.91
2022-08-20T02:10:27.159Z,20.88
2022-08-20T02:13:00.094Z,20.85
2022-08-20T02:15:30.921Z,20.84
2022-08-20T02:18:08.034Z,20.81
2022-08-20T02:20:36.910Z,20.76
2022-08-20T02:23:06.867Z,20.52
2022-08-20T02:25:37.773Z,20.67
2022-08-20T02:28:12.370Z,20.65
2022-08-20T02:30:44.250Z,20.61
2022-08-20T02:33:15.130Z,20.59
2022-08-20T02:35:46.557Z,20.17
2022-08-20T02:38:15.668Z,20.55
2022-08-20T02:40:45.015Z,20.55
2022-08-20T02:43:14.398Z,20.52
2022-08-20T02:45:44.628Z,20.49
2022-08-20T02:48:21.029Z,20.43
2022-08-20T02:50:51.727Z,20.38
2022-08-20T02:53:20.238Z,19.31
2022-08-20T02:55:48.234Z,20.28
2022-08-20T02:58:16.508Z,20.23
2022-08-20T03:00:46.360Z,20.20
2022-08-20T03:03:16.008Z,20.17
2022-08-20T03:05:45.429Z,19.88
2022-08-20T03:08:14.694Z,20.09
2022-08-20T03:10:44.748Z,20.08
2022-08-20T03:13:13.864Z,19.98
2022-08-20T03:15:44.316Z,20.08
2022-08-20T03:18:14.293Z,20.08
2022-08-20T03:20:42.779Z,20.08
2022-08-20T03:23:14.169Z,20.07
2022-08-20T03:25:42.075Z,19.77
2022-08-20T03:28:10.575Z,19.81
2022-08-20T03:30:39.045Z,17.90
2022-08-20T03:33:07.108Z,19.87
2022-08-20T03:35:37.436Z,19.81
2022-08-20T03:38:08.282Z,19.43
2022-08-20T03:40:36.762Z,19.68
2022-08-20T03:43:06.036Z,18.62
2022-08-20T03:45:34.003Z,17.09
2022-08-20T03:48:02.106Z,19.09
2022-08-20T03:50:32.541Z,19.61
2022-08-20T03:53:02.479Z,19.29
2022-08-20T03:55:32.571Z,19.52
2022-08-20T03:58:06.106Z,17.80
2022-08-20T04:00:38.952Z,19.54
2022-08-20T04:03:08.281Z,18.68
2022-08-20T04:05:40.588Z,19.67
2022-08-20T04:08:12.384Z,19.70
2022-08-20T04:10:40.487Z,19.70
2022-08-20T04:13:08.852Z,19.50
2022-08-20T04:15:38.035Z,19.67
2022-08-20T04:18:08.885Z,19.67
2022-08-20T04:20:39.123Z,19.67
2022-08-20T04:23:08.607Z,19.29
2022-08-20T04:25:42.512Z,19.72
2022-08-20T04:28:15.454Z,19.21
2022-08-20T04:30:47.560Z,19.76
2022-08-20T04:33:19.903Z,19.76
2022-08-20T04:36:05.925Z,19.78
2022-08-20T04:38:50.510Z,19.79
2022-08-20T04:41:23.702Z,19.80
2022-08-20T04:43:53.886Z,19.28
2022-08-20T04:46:25.336Z,19.84
2022-08-20T04:48:53.128Z,19.58
2022-08-20T04:51:22.903Z,19.72
2022-08-20T04:53:51.945Z,19.43
2022-08-20T04:56:24.285Z,19.77
2022-08-20T04:58:54.264Z,19.66
2022-08-20T05:01:23.852Z,19.88
2022-08-20T05:03:54.588Z,19.63
2022-08-20T05:06:24.666Z,19.94
2022-08-20T05:08:53.310Z,18.47
2022-08-20T05:11:35.750Z,19.91
2022-08-20T05:14:07.858Z,19.87
2022-08-20T05:16:40.675Z,19.88
2022-08-20T05:19:10.825Z,19.90
2022-08-20T05:21:39.634Z,19.90
2022-08-20T05:24:08.470Z,19.65
2022-08-20T05:26:37.690Z,19.95
2022-08-20T05:29:07.455Z,19.34
2022-08-20T05:31:38.402Z,19.86
2022-08-20T05:34:11.035Z,20.02
2022-08-20T05:36:40.637Z,19.89
2022-08-20T05:39:09.237Z,20.03
2022-08-20T05:41:39.299Z,20.01
2022-08-20T05:44:10.560Z,19.75
2022-08-20T05:46:40.388Z,19.64
2022-08-20T05:49:08.767Z,19.75
2022-08-20T05:51:37.071Z,20.09
2022-08-20T05:54:05.524Z,20.12
2022-08-20T05:56:33.994Z,20.19
2022-08-20T05:59:05.629Z,20.25
2022-08-20T06:01:35.757Z,19.82
2022-08-20T06:04:22.116Z,20.28
2022-08-20T06:06:51.071Z,17.13
2022-08-20T06:09:30.885Z,20.34
2022-08-20T06:12:02.139Z,20.16
2022-08-20T06:14:32.493Z,19.30
2022-08-20T06:17:05.708Z,19.64
2022-08-20T06:19:34.678Z,20.44
2022-08-20T06:22:17.540Z,20.51
2022-08-20T06:24:48.789Z,19.37
2022-08-20T06:27:17.589Z,20.66
2022-08-20T06:29:47.468Z,20.68
2022-08-20T06:32:15.558Z,20.70
2022-08-20T06:34:50.513Z,20.69
2022-08-20T06:37:21.089Z,20.10
2022-08-20T06:39:49.253Z,20.53
2022-08-20T06:42:20.647Z,20.31
2022-08-20T06:44:51.086Z,20.52
2022-08-20T06:47:20.480Z,18.68
2022-08-20T06:49:48.948Z,20.63
2022-08-20T06:52:18.240Z,20.69
2022-08-20T06:54:46.743Z,20.08
2022-08-20T06:57:14.920Z,20.37
2022-08-20T06:59:42.860Z,20.62
2022-08-20T07:02:12.213Z,20.52
2022-08-20T07:04:39.990Z,20.47
2022-08-20T07:07:16.075Z,19.71
2022-08-20T07:09:44.382Z,20.06
2022-08-20T07:12:12.271Z,20.52
2022-08-20T07:14:40.275Z,19.57
2022-08-20T07:17:09.664Z,20.81
2022-08-20T07:19:41.679Z,20.93
2022-08-20T07:22:09.534Z,21.00
2022-08-20T07:24:41.116Z,21.09
2022-08-20T07:27:09.988Z,21.21
2022-08-20T07:29:55.871Z,19.26
2022-08-20T07:32:36.907Z,20.76
2022-08-20T07:35:11.534Z,20.73
2022-08-20T07:37:41.355Z,19.76
2022-08-20T07:40:13.096Z,21.12
2022-08-20T07:42:41.516Z,21.30
2022-08-20T07:45:11.341Z,21.53
2022-08-20T07:47:39.751Z,21.28
2022-08-20T07:50:11.280Z,22.26
2022-08-20T07:52:39.123Z,23.18
2022-08-20T07:55:12.408Z,23.53
2022-08-20T07:57:41.133Z,23.95
2022-08-20T08:00:11.953Z,24.30
2022-08-20T08:02:39.815Z,24.66
2022-08-20T08:05:09.663Z,24.93
2022-08-20T08:07:39.380Z,24.96
2022-08-20T08:10:16.107Z,25.16
2022-08-20T08:12:48.642Z,27.47
2022-08-20T08:15:22.442Z,28.13
2022-08-20T08:17:52.665Z,29.06
2022-08-20T08:20:23.324Z,32.01
2022-08-20T08:25:54.502Z,37.85
2022-08-20T08:29:05.155Z,39.76
2022-08-20T08:32:02.072Z,41.57
2022-08-20T08:34:30.024Z,41.08
2022-08-20T08:37:00.907Z,41.21
2022-08-20T08:39:34.640Z,42.32
2022-08-20T08:42:05.079Z,42.27
2022-08-20T08:44:47.583Z,41.00
2022-08-20T08:47:26.512Z,41.40
2022-08-20T08:49:54.387Z,40.78
2022-08-20T08:52:27.477Z,40.37
2022-08-20T08:54:59.112Z,40.34
2022-08-20T08:57:28.954Z,41.18
2022-08-20T09:00:03.905Z,42.13
2022-08-20T09:02:36.207Z,43.11
2022-08-20T09:05:14.573Z,43.93
2022-08-20T09:07:46.792Z,43.77
2022-08-20T09:10:23.271Z,43.87
2022-08-20T09:12:52.269Z,43.56
2022-08-20T09:15:21.149Z,42.85
2022-08-20T09:17:49.055Z,40.39
2022-08-20T09:20:18.163Z,38.18
2022-08-20T09:22:47.469Z,36.57
2022-08-20T09:25:19.591Z,37.53
2022-08-20T09:27:47.372Z,40.79
2022-08-20T09:30:17.988Z,43.02
2022-08-20T09:32:46.421Z,41.88
2022-08-20T09:35:15.418Z,40.86
2022-08-20T09:37:58.670Z,40.49
2022-08-20T09:40:29.727Z,41.40
2022-08-20T09:42:57.731Z,40.56
2022-08-20T09:45:25.811Z,38.44
2022-08-20T09:47:56.328Z,36.38
2022-08-20T09:50:25.606Z,34.40
2022-08-20T09:52:56.439Z,34.53
2022-08-20T09:55:31.723Z,36.59
2022-08-20T09:58:00.644Z,39.90
2022-08-20T10:00:28.660Z,42.42
2022-08-20T10:02:56.563Z,44.66
2022-08-20T10:05:25.698Z,45.42
2022-08-20T10:07:58.690Z,44.82
2022-08-20T10:10:27.152Z,45.25
2022-08-20T10:12:55.284Z,46.61
2022-08-20T10:15:23.143Z,47.82
2022-08-20T10:17:51.188Z,48.85
2022-08-20T10:20:19.662Z,49.40
2022-08-20T10:22:47.803Z,49.84
2022-08-20T10:25:17.797Z,50.16
2022-08-20T10:27:46.026Z,49.92
2022-08-20T10:30:14.490Z,46.90
2022-08-20T10:32:42.971Z,44.75
2022-08-20T10:35:14.208Z,42.48
2022-08-20T10:37:42.889Z,39.98
2022-08-20T10:40:12.082Z,37.95
2022-08-20T10:42:42.767Z,36.40
2022-08-20T10:45:11.275Z,36.87
2022-08-20T10:47:39.240Z,39.76
2022-08-20T10:50:10.044Z,41.00
2022-08-20T10:52:38.253Z,42.50
2022-08-20T10:55:06.927Z,43.65
2022-08-20T10:57:34.821Z,44.08
2022-08-20T11:00:07.378Z,45.55
2022-08-20T11:02:35.147Z,46.39
2022-08-20T11:05:03.088Z,46.16
2022-08-20T11:08:12.920Z,43.04
2022-08-20T11:10:48.199Z,39.38
2022-08-20T11:13:15.973Z,37.89
2022-08-20T11:15:45.636Z,37.23
2022-08-20T11:18:14.240Z,37.50
2022-08-20T11:20:42.038Z,38.86
2022-08-20T11:23:09.860Z,39.16
2022-08-20T11:25:37.620Z,39.78
2022-08-20T11:28:06.658Z,41.84
2022-08-20T11:30:37.585Z,43.59
2022-08-20T11:33:07.349Z,44.85
2022-08-20T11:35:48.909Z,45.26
2022-08-20T11:38:17.986Z,45.98
2022-08-20T11:40:47.325Z,46.05
2022-08-20T11:43:16.702Z,44.06
2022-08-20T11:45:47.259Z,41.47
2022-08-20T11:48:16.855Z,38.64
2022-08-20T11:50:44.717Z,36.60
2022-08-20T11:53:12.560Z,35.62
2022-08-20T11:55:41.000Z,35.01
2022-08-20T11:58:08.967Z,34.61
2022-08-20T12:00:37.304Z,33.36
2022-08-20T12:03:11.871Z,33.14
2022-08-20T12:05:49.010Z,32.60
2022-08-20T12:08:26.811Z,32.37
2022-08-20T12:10:59.169Z,32.56
2022-08-20T12:13:48.837Z,31.86
2022-08-20T12:16:19.746Z,32.29
2022-08-20T12:18:48.788Z,32.17
2022-08-20T12:21:18.217Z,32.20
2022-08-20T12:23:46.789Z,31.77
2022-08-20T12:26:17.840Z,31.66
2022-08-20T12:28:45.742Z,31.19
2022-08-20T12:31:13.591Z,30.80
2022-08-20T12:33:41.358Z,30.37
2022-08-20T12:36:09.783Z,29.91
2022-08-20T12:38:38.931Z,29.81
2022-08-20T12:41:07.138Z,29.83
2022-08-20T12:43:34.905Z,29.66
2022-08-20T12:46:02.718Z,29.41
2022-08-20T12:48:30.566Z,29.04
2022-08-20T12:50:58.505Z,28.64
2022-08-20T12:53:26.264Z,28.38
2022-08-20T12:55:56.527Z,28.21
2022-08-20T12:58:24.652Z,28.08
2022-08-20T13:00:52.605Z,28.00
2022-08-20T13:03:20.903Z,27.96
2022-08-20T13:05:49.251Z,27.85
2022-08-20T13:08:19.064Z,27.66
2022-08-20T13:10:47.183Z,27.45
2022-08-20T13:13:20.820Z,26.95
2022-08-20T13:15:50.527Z,25.90
2022-08-20T13:18:19.313Z,27.29
2022-08-20T13:20:47.528Z,27.26
2022-08-20T13:23:15.570Z,27.48
2022-08-20T13:25:43.371Z,26.36
2022-08-20T13:28:11.398Z,25.87
2022-08-20T13:30:41.347Z,25.55
2022-08-20T13:33:09.271Z,26.61
2022-08-20T13:35:37.399Z,27.38
2022-08-20T13:38:05.228Z,26.25
2022-08-20T13:40:32.992Z,27.60
2022-08-20T13:43:05.916Z,27.57
2022-08-20T13:45:34.632Z,26.81
2022-08-20T13:48:04.606Z,27.06
2022-08-20T13:50:34.893Z,26.77
2022-08-20T13:53:02.831Z,26.58
2022-08-20T13:55:30.653Z,25.69
2022-08-20T13:57:58.636Z,26.42
2022-08-20T14:00:31.141Z,26.33
2022-08-20T14:03:00.019Z,25.74
2022-08-20T14:05:29.615Z,26.18
2022-08-20T14:07:57.865Z,25.94
2022-08-20T14:10:31.314Z,25.99
2022-08-20T14:12:59.622Z,26.29
2022-08-20T14:15:27.520Z,26.23
2022-08-20T14:17:57.655Z,26.44
2022-08-20T14:20:29.322Z,26.80
2022-08-20T14:23:02.439Z,26.74
2022-08-20T14:25:32.234Z,27.10
2022-08-20T14:28:09.474Z,27.27
2022-08-20T14:30:37.343Z,27.29
2022-08-20T14:33:05.328Z,27.19
2022-08-20T14:35:33.202Z,27.16
2022-08-20T14:38:05.472Z,26.35
2022-08-20T14:40:34.157Z,26.64
2022-08-20T14:43:01.964Z,26.67
2022-08-20T14:45:29.844Z,26.48
2022-08-20T14:47:59.203Z,25.49
2022-08-20T14:50:28.815Z,26.50
2022-08-20T14:52:57.543Z,26.46
2022-08-20T14:55:31.547Z,26.23
2022-08-20T14:58:00.787Z,26.17
2022-08-20T15:00:33.787Z,26.02
2022-08-20T15:03:02.117Z,25.86
2022-08-20T15:05:30.267Z,26.03
2022-08-20T15:07:58.540Z,25.94
2022-08-20T15:10:31.642Z,25.60
2022-08-20T15:13:00.030Z,25.82
2022-08-20T15:15:27.974Z,25.65
2022-08-20T15:17:59.942Z,25.58
2022-08-20T15:20:30.950Z,25.63
2022-08-20T15:23:00.284Z,25.42
2022-08-20T15:25:36.508Z,25.21
2022-08-20T15:28:07.446Z,25.59
2022-08-20T15:30:35.825Z,25.58
2022-08-20T15:33:03.665Z,25.28
2022-08-20T15:35:31.822Z,25.13
2022-08-20T15:38:00.719Z,25.48
2022-08-20T15:40:32.466Z,25.45
2022-08-20T15:43:02.491Z,25.45
2022-08-20T15:45:30.775Z,25.42
2022-08-20T15:48:03.919Z,25.36
2022-08-20T15:50:45.679Z,25.33
2022-08-20T15:53:21.241Z,25.36
2022-08-20T15:56:04.032Z,25.19
2022-08-20T15:58:38.431Z,25.40
2022-08-20T16:01:24.628Z,25.38
2022-08-20T16:04:29.427Z,25.42
2022-08-20T16:07:06.071Z,25.43
2022-08-20T16:09:49.544Z,25.05
2022-08-20T16:12:25.491Z,25.36
2022-08-20T16:15:00.465Z,25.34
2022-08-20T16:17:34.498Z,25.30
2022-08-20T16:20:08.339Z,25.11
2022-08-20T16:22:40.091Z,25.21
2022-08-20T16:25:09.080Z,24.97
2022-08-20T16:27:48.215Z,25.23
2022-08-20T16:30:22.191Z,25.20
2022-08-20T16:32:58.393Z,25.18
2022-08-20T16:35:32.124Z,25.15
2022-08-20T16:38:07.734Z,25.10
2022-08-20T16:40:44.126Z,25.08
2022-08-20T16:43:25.015Z,25.05
2022-08-20T16:45:56.414Z,25.01
2022-08-20T16:48:30.181Z,24.95
2022-08-20T16:51:02.384Z,24.92
2022-08-20T16:53:30.301Z,24.87
2022-08-20T16:55:58.387Z,24.85
2022-08-20T16:58:27.532Z,24.85
2022-08-20T17:01:07.863Z,24.69
2022-08-20T17:03:40.289Z,24.77
2022-08-20T17:06:18.232Z,24.33
2022-08-20T17:08:49.743Z,24.67
2022-08-20T17:11:25.054Z,24.62
2022-08-20T17:14:05.247Z,24.53
2022-08-20T17:16:36.757Z,24.48
2022-08-20T17:19:28.551Z,24.22
2022-08-20T17:21:57.547Z,24.38
2022-08-20T17:24:28.120Z,24.31
2022-08-20T17:27:01.963Z,24.26
2022-08-20T17:29:33.542Z,24.18
2022-08-20T17:32:10.624Z,24.05
2022-08-20T17:34:46.135Z,23.88
2022-08-20T17:37:22.523Z,23.76
2022-08-20T17:39:52.873Z,23.50
2022-08-20T17:42:25.643Z,23.50
2022-08-20T17:44:59.556Z,22.98
2022-08-20T17:47:34.562Z,22.75
2022-08-20T17:50:09.263Z,23.08
2022-08-20T17:52:44.679Z,22.95
2022-08-20T17:55:13.752Z,22.78
2022-08-20T17:57:45.435Z,22.48
2022-08-20T18:00:23.125Z,22.50
2022-08-20T18:02:53.826Z,22.35
2022-08-20T18:05:22.944Z,22.22
2022-08-20T18:08:11.245Z,22.06
2022-08-20T18:10:47.273Z,21.93
2022-08-20T18:13:19.995Z,21.80
2022-08-20T18:15:54.632Z,21.66
2022-08-20T18:18:32.048Z,21.42
2022-08-20T18:21:22.707Z,21.39
2022-08-20T18:23:56.374Z,20.98
2022-08-20T18:26:29.439Z,21.11
2022-08-20T18:29:03.466Z,20.88
2022-08-20T18:31:52.313Z,20.03
2022-08-20T18:34:22.902Z,20.71
2022-08-20T18:37:00.335Z,20.46
2022-08-20T18:39:31.783Z,20.43
2022-08-20T18:42:02.468Z,20.34
2022-08-20T18:44:39.734Z,20.22
2022-08-20T18:47:22.534Z,20.08
2022-08-20T18:50:01.311Z,19.97
2022-08-20T18:52:31.532Z,19.86
2022-08-20T18:55:01.878Z,19.74
2022-08-20T18:57:41.868Z,19.63
2022-08-20T19:00:14.910Z,19.53
2022-08-20T19:02:57.563Z,19.24
2022-08-20T19:05:29.815Z,19.29
2022-08-20T19:08:01.404Z,18.78
2022-08-20T19:10:44.874Z,19.07
2022-08-20T19:13:28.387Z,18.95
2022-08-20T19:16:04.892Z,18.83
2022-08-20T19:18:40.676Z,18.45
2022-08-20T19:21:15.799Z,18.61
2022-08-20T19:23:52.556Z,18.52
2022-08-20T19:26:25.957Z,18.42
2022-08-20T19:28:56.318Z,18.19
2022-08-20T19:31:27.052Z,18.24
2022-08-20T19:34:20.326Z,18.16
2022-08-20T19:36:56.477Z,18.05
2022-08-20T19:39:25.781Z,17.97
2022-08-20T19:41:58.172Z,17.89
2022-08-20T19:44:41.767Z,17.59
2022-08-20T19:47:20.167Z,17.74
2022-08-20T19:49:59.736Z,17.55
2022-08-20T19:52:38.353Z,17.58
2022-08-20T19:55:16.039Z,17.49
2022-08-20T19:57:50.685Z,17.40
2022-08-20T20:00:18.605Z,17.22
2022-08-20T20:02:46.564Z,17.29
2022-08-20T20:05:16.992Z,17.23
2022-08-20T20:07:49.476Z,17.17
2022-08-20T20:10:32.565Z,17.10
2022-08-20T20:13:08.206Z,17.04
2022-08-20T20:15:36.781Z,16.96
2022-08-20T20:18:05.239Z,16.91
2022-08-20T20:20:38.286Z,16.33
2022-08-20T20:23:27.253Z,16.75
2022-08-20T20:25:59.892Z,16.71
2022-08-20T20:28:32.635Z,16.48
2022-08-20T20:31:07.171Z,16.61
2022-08-20T20:33:43.367Z,16.55
2022-08-20T20:36:33.673Z,16.48
2022-08-20T20:39:04.780Z,16.24
2022-08-20T20:41:33.299Z,16.13
2022-08-20T20:44:03.879Z,16.32
2022-08-20T20:46:34.144Z,16.27
2022-08-20T20:49:12.282Z,15.90
2022-08-20T20:51:52.535Z,13.64
2022-08-20T20:54:28.741Z,14.86
2022-08-20T20:57:02.966Z,16.05
2022-08-20T20:59:33.451Z,16.01
2022-08-20T21:02:01.724Z,15.61
2022-08-20T21:04:30.167Z,15.92
2022-08-20T21:07:08.527Z,15.87
2022-08-20T21:09:37.287Z,15.51
2022-08-20T21:12:05.880Z,15.78
2022-08-20T21:14:34.057Z,15.69
2022-08-20T21:17:04.116Z,15.69
2022-08-20T21:19:32.358Z,15.14
2022-08-20T21:22:01.927Z,15.61
2022-08-20T21:24:29.792Z,13.26
2022-08-20T21:26:58.421Z,15.11
2022-08-20T21:29:32.275Z,15.44
2022-08-20T21:32:01.085Z,15.17
2022-08-20T21:34:28.999Z,15.12
2022-08-20T21:36:58.610Z,14.40
2022-08-20T21:39:29.928Z,15.30
2022-08-20T21:42:02.247Z,14.33
2022-08-20T21:44:33.348Z,15.22
2022-08-20T21:47:02.157Z,14.47
2022-08-20T21:49:31.529Z,15.16
2022-08-20T21:51:59.666Z,14.84
2022-08-20T21:54:29.508Z,14.91
2022-08-20T21:57:00.178Z,15.07
2022-08-20T21:59:28.951Z,14.94
2022-08-20T22:01:57.319Z,14.73
2022-08-20T22:04:25.154Z,14.98
2022-08-20T22:06:53.011Z,14.94
2022-08-20T22:09:21.058Z,14.91
2022-08-20T22:11:54.601Z,14.88
2022-08-20T22:14:24.419Z,14.77
2022-08-20T22:16:52.413Z,13.04
2022-08-20T22:19:20.419Z,14.75
2022-08-20T22:21:50.146Z,14.29
2022-08-20T22:24:18.081Z,13.43
2022-08-20T22:26:46.074Z,14.65
2022-08-20T22:29:15.194Z,14.62
2022-08-20T22:31:44.560Z,14.58
2022-08-20T22:34:14.206Z,14.54
2022-08-20T22:36:42.532Z,14.51
2022-08-20T22:39:11.158Z,13.53
2022-08-20T22:41:39.423Z,14.36
2022-08-20T22:44:07.669Z,14.44
2022-08-20T22:46:46.385Z,14.41
2022-08-20T22:49:19.424Z,14.38
2022-08-20T22:51:47.377Z,14.04
2022-08-20T22:54:20.335Z,13.93
2022-08-20T22:56:48.447Z,14.01
2022-08-20T22:59:19.367Z,14.25
2022-08-20T23:01:48.909Z,14.24
2022-08-20T23:04:22.950Z,13.68
2022-08-20T23:06:51.066Z,14.19
2022-08-20T23:09:21.103Z,14.16
2022-08-20T23:11:49.852Z,12.39
2022-08-20T23:14:17.792Z,12.04
2022-08-20T23:16:50.814Z,14.05
2022-08-20T23:19:21.715Z,13.76
2022-08-20T23:21:50.230Z,13.61
2022-08-20T23:24:19.122Z,13.95
2022-08-20T23:26:52.860Z,13.92
2022-08-20T23:29:25.346Z,13.78
2022-08-20T23:31:56.116Z,13.65
2022-08-20T23:34:24.605Z,13.47
2022-08-20T23:36:54.141Z,13.78
2022-08-20T23:39:22.395Z,13.53
2022-08-20T23:41:50.738Z,13.48
2022-08-20T23:44:25.819Z,12.75
2022-08-20T23:46:57.854Z,13.65
2022-08-20T23:49:25.955Z,13.62
2022-08-20T23:51:54.308Z,13.25
2022-08-20T23:54:22.503Z,13.54
2022-08-20T23:56:50.631Z,13.54
2022-08-20T23:59:18.711Z,13.15
